createdAt,value
2019-05-01T00:01:15.234Z,23.00
2019-05-01T00:04:05.600Z,23.00
2019-05-01T00:06:43.933Z,23.00
2019-05-01T00:09:12.956Z,23.00
2019-05-01T00:11:41.164Z,23.00
2019-05-01T00:14:09.536Z,23.00
2019-05-01T00:16:37.561Z,23.00
2019-05-01T00:19:05.557Z,23.00
2019-05-01T00:21:33.596Z,23.00
2019-05-01T00:24:01.672Z,23.00
2019-05-01T00:26:30.307Z,23.00
2019-05-01T00:28:58.427Z,23.00
2019-05-01T00:31:26.510Z,23.00
2019-05-01T00:33:54.836Z,23.00
2019-05-01T00:36:22.927Z,23.00
2019-05-01T00:38:51.020Z,23.00
2019-05-01T00:41:19.092Z,23.00
2019-05-01T00:43:47.208Z,23.10
2019-05-01T00:46:15.281Z,23.00
2019-05-01T00:48:43.470Z,23.00
2019-05-01T00:51:11.515Z,23.00
2019-05-01T00:53:39.594Z,23.00
2019-05-01T00:56:36.387Z,23.10
2019-05-01T00:59:19.973Z,23.00
2019-05-01T01:02:17.713Z,23.00
2019-05-01T01:04:45.942Z,23.10
2019-05-01T01:07:14.301Z,23.10
2019-05-01T01:09:42.574Z,23.10
2019-05-01T01:12:10.598Z,23.10
2019-05-01T01:14:38.830Z,23.10
2019-05-01T01:17:07.230Z,23.10
2019-05-01T01:19:35.318Z,23.00
2019-05-01T01:22:03.756Z,23.10
2019-05-01T01:24:31.950Z,23.00
2019-05-01T01:27:00.125Z,23.10
2019-05-01T01:29:28.341Z,23.00
2019-05-01T01:31:56.415Z,23.00
2019-05-01T01:34:24.774Z,23.10
2019-05-01T01:36:52.799Z,23.10
2019-05-01T01:39:20.876Z,23.10
2019-05-01T01:41:49.254Z,23.10
2019-05-01T01:44:39.818Z,23.00
2019-05-01T01:47:09.680Z,23.00
2019-05-01T01:49:38.472Z,23.00
2019-05-01T01:52:06.606Z,23.00
2019-05-01T01:54:34.704Z,23.00
2019-05-01T01:57:02.764Z,23.00
2019-05-01T01:59:31.171Z,23.00
2019-05-01T02:02:09.096Z,23.00
2019-05-01T02:05:05.890Z,23.00
2019-05-01T02:07:34.637Z,23.00
2019-05-01T02:10:04.167Z,23.00
2019-05-01T02:12:32.493Z,23.00
2019-05-01T02:15:00.743Z,23.00
2019-05-01T02:17:28.736Z,23.00
2019-05-01T02:19:57.039Z,23.00
2019-05-01T02:22:25.030Z,23.00
2019-05-01T02:24:53.036Z,23.00
2019-05-01T02:27:26.685Z,23.00
2019-05-01T02:29:57.884Z,23.00
2019-05-01T02:32:28.759Z,23.00
2019-05-01T02:34:59.586Z,23.00
2019-05-01T02:37:31.590Z,23.00
2019-05-01T02:40:05.296Z,23.00
2019-05-01T02:42:36.876Z,23.00
2019-05-01T02:45:05.355Z,22.90
2019-05-01T02:47:35.334Z,22.90
2019-05-01T02:50:10.831Z,23.00
2019-05-01T02:52:42.053Z,23.00
2019-05-01T02:55:37.362Z,22.90
2019-05-01T02:58:06.751Z,23.00
2019-05-01T03:00:35.178Z,23.00
2019-05-01T03:03:03.448Z,23.00
2019-05-01T03:05:33.888Z,23.00
2019-05-01T03:08:02.496Z,23.00
2019-05-01T03:10:30.840Z,23.00
2019-05-01T03:12:59.386Z,23.00
2019-05-01T03:15:31.002Z,23.00
2019-05-01T03:18:12.296Z,23.00
2019-05-01T03:20:59.798Z,23.00
2019-05-01T03:23:43.878Z,23.00
2019-05-01T03:26:12.994Z,23.00
2019-05-01T03:28:43.966Z,23.00
2019-05-01T03:31:12.092Z,23.00
2019-05-01T03:33:40.278Z,23.00
2019-05-01T03:36:08.662Z,22.90
2019-05-01T03:38:37.359Z,22.90
2019-05-01T03:41:05.862Z,22.90
2019-05-01T03:43:34.479Z,23.00
2019-05-01T03:46:02.933Z,22.90
2019-05-01T03:48:31.463Z,22.90
2019-05-01T03:50:59.638Z,22.90
2019-05-01T03:53:27.963Z,22.90
2019-05-01T03:55:56.114Z,22.90
2019-05-01T03:58:24.211Z,22.90
2019-05-01T04:01:10.843Z,23.00
2019-05-01T04:03:48.502Z,22.90
2019-05-01T04:06:16.633Z,22.90
2019-05-01T04:08:45.916Z,22.90
2019-05-01T04:11:14.353Z,22.90
2019-05-01T04:13:43.135Z,22.90
2019-05-01T04:16:11.306Z,22.90
2019-05-01T04:18:39.920Z,22.90
2019-05-01T04:21:09.289Z,22.90
2019-05-01T04:23:42.105Z,22.80
2019-05-01T04:26:11.616Z,22.90
2019-05-01T04:28:57.821Z,22.80
2019-05-01T04:31:54.128Z,22.80
2019-05-01T04:34:29.297Z,22.80
2019-05-01T04:36:59.751Z,22.90
2019-05-01T04:39:28.831Z,22.80
2019-05-01T04:41:57.097Z,22.80
2019-05-01T04:44:25.279Z,22.80
2019-05-01T04:46:53.960Z,22.80
2019-05-01T04:49:22.284Z,22.80
2019-05-01T04:51:50.457Z,22.80
2019-05-01T04:54:18.690Z,22.80
2019-05-01T04:56:47.623Z,22.80
2019-05-01T04:59:15.847Z,22.80
2019-05-01T05:01:57.715Z,22.80
2019-05-01T05:04:27.795Z,22.80
2019-05-01T05:06:55.907Z,22.80
2019-05-01T05:09:42.196Z,22.80
2019-05-01T05:12:23.118Z,22.80
2019-05-01T05:14:56.163Z,22.80
2019-05-01T05:17:25.195Z,22.80
2019-05-01T05:19:53.157Z,22.80
2019-05-01T05:22:21.996Z,22.80
2019-05-01T05:24:50.277Z,22.80
2019-05-01T05:27:18.871Z,22.80
2019-05-01T05:29:48.172Z,22.80
2019-05-01T05:32:18.912Z,22.80
2019-05-01T05:34:48.570Z,22.80
2019-05-01T05:37:24.257Z,22.80
2019-05-01T05:39:53.077Z,22.80
2019-05-01T05:42:21.237Z,22.80
2019-05-01T05:44:49.433Z,22.80
2019-05-01T05:47:17.503Z,22.80
2019-05-01T05:49:46.450Z,22.80
2019-05-01T05:52:38.417Z,22.80
2019-05-01T05:55:15.901Z,22.90
2019-05-01T05:58:19.321Z,22.80
2019-05-01T06:01:06.846Z,22.80
2019-05-01T06:04:05.236Z,22.80
2019-05-01T06:07:13.351Z,22.80
2019-05-01T06:09:58.511Z,22.90
2019-05-01T06:13:04.149Z,22.80
2019-05-01T06:15:52.323Z,22.80
2019-05-01T06:18:40.570Z,22.80
2019-05-01T06:21:18.749Z,22.80
2019-05-01T06:23:57.748Z,22.80
2019-05-01T06:26:27.321Z,22.80
2019-05-01T06:29:00.555Z,22.80
2019-05-01T06:31:25.985Z,22.80
2019-05-01T06:33:54.948Z,22.80
2019-05-01T06:36:24.055Z,22.90
2019-05-01T06:38:53.715Z,22.90
2019-05-01T06:41:22.165Z,22.90
2019-05-01T06:44:02.382Z,22.90
2019-05-01T06:46:38.413Z,22.90
2019-05-01T06:49:18.329Z,22.90
2019-05-01T06:51:53.128Z,22.90
2019-05-01T06:54:20.522Z,22.90
2019-05-01T06:56:49.823Z,22.90
2019-05-01T06:59:17.917Z,22.90
2019-05-01T07:01:47.111Z,22.90
2019-05-01T07:04:15.385Z,22.90
2019-05-01T07:06:44.010Z,22.90
2019-05-01T07:09:14.711Z,22.90
2019-05-01T07:11:47.579Z,22.80
2019-05-01T07:14:16.097Z,22.90
2019-05-01T07:16:42.991Z,22.90
2019-05-01T07:19:11.826Z,22.80
2019-05-01T07:21:41.059Z,22.80
2019-05-01T07:24:09.258Z,22.80
2019-05-01T07:26:37.323Z,22.80
2019-05-01T07:29:09.922Z,22.80
2019-05-01T07:31:39.270Z,22.80
2019-05-01T07:34:16.333Z,22.80
2019-05-01T07:36:37.800Z,22.80
2019-05-01T07:39:09.811Z,22.80
2019-05-01T07:41:37.722Z,22.80
2019-05-01T07:44:43.205Z,22.80
2019-05-01T07:47:25.907Z,22.80
2019-05-01T07:49:59.258Z,22.80
2019-05-01T07:52:28.252Z,22.70
2019-05-01T07:54:57.031Z,22.70
2019-05-01T07:57:25.562Z,22.70
2019-05-01T07:59:58.221Z,22.60
2019-05-01T08:02:25.825Z,22.60
2019-05-01T08:04:54.567Z,22.60
2019-05-01T08:07:22.905Z,22.60
2019-05-01T08:09:51.491Z,22.60
2019-05-01T08:12:23.922Z,22.60
2019-05-01T08:14:53.695Z,22.60
2019-05-01T08:17:23.654Z,22.60
2019-05-01T08:19:59.811Z,22.60
2019-05-01T08:22:32.135Z,22.60
2019-05-01T08:25:00.615Z,22.50
2019-05-01T08:27:56.236Z,22.50
2019-05-01T08:30:39.501Z,22.50
2019-05-01T08:33:32.811Z,22.50
2019-05-01T08:36:01.295Z,22.50
2019-05-01T08:38:29.864Z,22.50
2019-05-01T08:40:59.360Z,22.60
2019-05-01T08:43:27.957Z,22.60
2019-05-01T08:46:18.291Z,22.60
2019-05-01T08:48:53.889Z,22.60
2019-05-01T08:51:34.953Z,22.60
2019-05-01T08:54:06.143Z,22.70
2019-05-01T08:56:34.145Z,22.70
2019-05-01T08:59:03.609Z,22.70
2019-05-01T09:01:31.658Z,22.70
2019-05-01T09:04:11.829Z,22.70
2019-05-01T09:06:34.828Z,22.70
2019-05-01T09:09:02.886Z,22.70
2019-05-01T09:11:31.849Z,22.70
2019-05-01T09:14:01.246Z,22.70
2019-05-01T09:16:30.232Z,22.70
2019-05-01T09:18:58.721Z,22.70
2019-05-01T09:21:27.066Z,22.70
2019-05-01T09:23:56.048Z,22.70
2019-05-01T09:26:45.314Z,22.70
2019-05-01T09:29:17.819Z,22.70
2019-05-01T09:31:45.893Z,22.70
2019-05-01T09:34:18.686Z,22.70
2019-05-01T09:36:43.851Z,22.70
2019-05-01T09:39:12.383Z,22.80
2019-05-01T09:41:43.167Z,22.80
2019-05-01T09:44:12.130Z,22.80
2019-05-01T09:46:40.325Z,22.80
2019-05-01T09:49:08.521Z,22.80
2019-05-01T09:52:04.995Z,22.80
2019-05-01T09:54:42.947Z,22.80
2019-05-01T09:57:10.302Z,22.80
2019-05-01T09:59:38.932Z,22.80
2019-05-01T10:02:08.994Z,22.80
2019-05-01T10:04:37.389Z,22.80
2019-05-01T10:07:07.285Z,22.70
2019-05-01T10:09:35.585Z,22.70
2019-05-01T10:12:03.792Z,22.70
2019-05-01T10:14:36.162Z,22.70
2019-05-01T10:17:01.751Z,22.70
2019-05-01T10:19:31.732Z,22.70
2019-05-01T10:22:02.476Z,22.70
2019-05-01T10:24:32.110Z,22.80
2019-05-01T10:27:02.303Z,22.80
2019-05-01T10:29:48.373Z,22.80
2019-05-01T10:32:21.622Z,22.80
2019-05-01T10:35:19.193Z,22.80
2019-05-01T10:37:47.167Z,22.80
2019-05-01T10:40:15.531Z,22.90
2019-05-01T10:42:43.831Z,22.90
2019-05-01T10:45:14.261Z,22.80
2019-05-01T10:47:42.640Z,22.80
2019-05-01T10:50:11.262Z,22.90
2019-05-01T10:52:39.392Z,22.80
2019-05-01T10:55:11.154Z,22.90
2019-05-01T10:57:40.266Z,22.90
2019-05-01T11:00:11.195Z,22.90
2019-05-01T11:02:40.425Z,22.90
2019-05-01T11:05:09.059Z,22.90
2019-05-01T11:07:38.282Z,22.80
2019-05-01T11:10:07.145Z,22.90
2019-05-01T11:12:35.325Z,22.80
2019-05-01T11:15:04.491Z,22.80
2019-05-01T11:17:33.571Z,22.80
2019-05-01T11:20:01.581Z,22.80
2019-05-01T11:22:29.706Z,22.80
2019-05-01T11:24:57.827Z,22.80
2019-05-01T11:27:26.121Z,22.80
2019-05-01T11:29:54.098Z,22.80
2019-05-01T11:32:35.131Z,22.80
2019-05-01T11:35:23.538Z,22.80
2019-05-01T11:38:03.107Z,22.80
2019-05-01T11:40:43.456Z,22.80
2019-05-01T11:43:11.552Z,22.80
2019-05-01T11:45:39.545Z,22.80
2019-05-01T11:48:07.679Z,22.80
2019-05-01T11:50:36.398Z,22.80
2019-05-01T11:53:04.832Z,22.80
2019-05-01T11:55:33.031Z,22.80
2019-05-01T11:58:01.084Z,22.80
2019-05-01T12:00:29.090Z,22.80
2019-05-01T12:02:58.993Z,22.80
2019-05-01T12:05:26.962Z,22.80
2019-05-01T12:07:55.081Z,22.80
2019-05-01T12:10:23.138Z,22.80
2019-05-01T12:12:51.180Z,22.80
2019-05-01T12:15:19.377Z,22.80
2019-05-01T12:17:48.836Z,22.80
2019-05-01T12:20:18.187Z,22.80
2019-05-01T12:22:50.908Z,22.80
2019-05-01T12:25:18.175Z,22.80
2019-05-01T12:27:46.671Z,22.80
2019-05-01T12:30:16.409Z,22.80
2019-05-01T12:32:44.549Z,22.80
2019-05-01T12:35:13.123Z,22.80
2019-05-01T12:37:41.857Z,22.80
2019-05-01T12:40:13.618Z,22.80
2019-05-01T12:42:41.646Z,22.80
2019-05-01T12:45:11.017Z,22.80
2019-05-01T12:48:04.821Z,22.80
2019-05-01T12:50:32.898Z,22.80
2019-05-01T12:53:13.475Z,22.80
2019-05-01T12:56:03.856Z,22.80
2019-05-01T12:58:33.353Z,22.90
2019-05-01T13:01:01.417Z,22.90
2019-05-01T13:03:29.472Z,22.90
2019-05-01T13:05:57.751Z,22.90
2019-05-01T13:08:25.687Z,22.90
2019-05-01T13:10:53.697Z,22.90
2019-05-01T13:13:21.666Z,22.90
2019-05-01T13:15:50.039Z,22.90
2019-05-01T13:18:18.310Z,22.90
2019-05-01T13:20:46.305Z,23.00
2019-05-01T13:23:15.297Z,22.90
2019-05-01T13:25:44.060Z,23.00
2019-05-01T13:28:31.651Z,23.00
2019-05-01T13:31:25.514Z,23.00
2019-05-01T13:33:53.707Z,23.00
2019-05-01T13:36:21.721Z,23.00
2019-05-01T13:38:49.771Z,23.00
2019-05-01T13:41:17.995Z,23.00
2019-05-01T13:43:46.035Z,23.00
2019-05-01T13:46:14.523Z,23.00
2019-05-01T13:48:43.079Z,23.10
2019-05-01T13:51:11.421Z,23.10
2019-05-01T13:53:39.415Z,23.10
2019-05-01T13:56:07.861Z,23.10
2019-05-01T13:58:35.879Z,23.10
2019-05-01T14:01:03.960Z,23.10
2019-05-01T14:03:32.033Z,23.10
2019-05-01T14:05:59.987Z,23.10
2019-05-01T14:08:28.196Z,23.10
2019-05-01T14:10:56.180Z,23.10
2019-05-01T14:13:24.251Z,23.10
2019-05-01T14:15:52.524Z,23.10
2019-05-01T14:18:20.486Z,23.10
2019-05-01T14:21:06.734Z,23.20
2019-05-01T14:23:57.039Z,23.20
2019-05-01T14:26:25.056Z,23.20
2019-05-01T14:28:53.056Z,23.20
2019-05-01T14:31:21.128Z,23.20
2019-05-01T14:33:49.367Z,23.20
2019-05-01T14:36:17.362Z,23.30
2019-05-01T14:38:45.318Z,23.30
2019-05-01T14:41:13.382Z,23.30
2019-05-01T14:43:41.662Z,23.30
2019-05-01T14:46:09.624Z,23.30
2019-05-01T14:48:37.660Z,23.30
2019-05-01T14:51:06.382Z,23.40
2019-05-01T14:53:34.678Z,23.40
2019-05-01T14:56:03.892Z,23.40
2019-05-01T14:58:32.041Z,23.40
2019-05-01T15:01:00.141Z,23.40
2019-05-01T15:03:28.166Z,23.40
2019-05-01T15:05:56.520Z,23.50
2019-05-01T15:08:24.782Z,23.50
2019-05-01T15:10:53.096Z,23.50
2019-05-01T15:13:33.865Z,23.50
2019-05-01T15:16:10.942Z,23.50
2019-05-01T15:18:48.636Z,23.60
2019-05-01T15:21:16.716Z,23.70
2019-05-01T15:23:53.356Z,23.70
2019-05-01T15:26:14.685Z,23.70
2019-05-01T15:28:44.012Z,23.70
2019-05-01T15:31:12.036Z,23.70
2019-05-01T15:33:40.462Z,23.70
2019-05-01T15:36:08.714Z,23.70
2019-05-01T15:38:36.698Z,23.70
2019-05-01T15:41:17.322Z,23.70
2019-05-01T15:44:07.874Z,23.70
2019-05-01T15:46:38.069Z,23.70
2019-05-01T15:49:06.627Z,23.80
2019-05-01T15:51:34.630Z,23.80
2019-05-01T15:54:02.595Z,23.80
2019-05-01T15:56:30.677Z,23.80
2019-05-01T15:58:58.765Z,23.80
2019-05-01T16:01:27.732Z,23.80
2019-05-01T16:03:55.900Z,23.80
2019-05-01T16:06:23.929Z,23.80
2019-05-01T16:08:51.930Z,23.80
2019-05-01T16:11:42.549Z,23.80
2019-05-01T16:14:10.662Z,23.80
2019-05-01T16:16:38.778Z,23.80
2019-05-01T16:19:06.789Z,23.80
2019-05-01T16:21:35.165Z,23.80
2019-05-01T16:24:04.266Z,23.80
2019-05-01T16:26:32.501Z,23.80
2019-05-01T16:29:00.505Z,23.80
2019-05-01T16:31:28.614Z,23.80
2019-05-01T16:33:56.611Z,23.80
2019-05-01T16:36:24.902Z,23.80
2019-05-01T16:39:15.361Z,23.80
2019-05-01T16:41:43.664Z,23.80
2019-05-01T16:44:11.676Z,23.80
2019-05-01T16:46:39.931Z,23.70
2019-05-01T16:49:08.085Z,23.80
2019-05-01T16:51:37.224Z,23.70
2019-05-01T16:54:06.080Z,23.70
2019-05-01T16:56:34.322Z,23.70
2019-05-01T16:59:02.937Z,23.70
2019-05-01T17:01:42.625Z,23.70
2019-05-01T17:04:37.024Z,23.70
2019-05-01T17:07:23.263Z,23.70
2019-05-01T17:10:25.975Z,23.70
2019-05-01T17:12:56.537Z,23.70
2019-05-01T17:15:37.084Z,23.70
2019-05-01T17:18:05.145Z,23.70
2019-05-01T17:20:33.137Z,23.70
2019-05-01T17:23:01.148Z,23.70
2019-05-01T17:25:30.158Z,23.70
2019-05-01T17:27:58.305Z,23.70
2019-05-01T17:30:39.374Z,23.70
2019-05-01T17:33:08.846Z,23.70
2019-05-01T17:35:41.653Z,23.70
2019-05-01T17:38:07.116Z,23.70
2019-05-01T17:40:35.299Z,23.60
2019-05-01T17:43:08.277Z,23.70
2019-05-01T17:45:34.925Z,23.60
2019-05-01T17:48:04.278Z,23.70
2019-05-01T17:50:32.368Z,23.60
2019-05-01T17:53:00.400Z,23.70
2019-05-01T17:55:28.565Z,23.60
2019-05-01T17:57:56.826Z,23.70
2019-05-01T18:00:38.176Z,23.70
2019-05-01T18:03:14.156Z,23.60
2019-05-01T18:06:19.772Z,23.70
2019-05-01T18:08:47.756Z,23.60
2019-05-01T18:11:15.874Z,23.60
2019-05-01T18:13:44.205Z,23.60
2019-05-01T18:16:12.610Z,23.60
2019-05-01T18:18:40.634Z,23.60
2019-05-01T18:21:10.583Z,23.60
2019-05-01T18:23:57.131Z,23.60
2019-05-01T18:26:33.852Z,23.60
2019-05-01T18:29:08.607Z,23.60
2019-05-01T18:31:38.688Z,23.60
2019-05-01T18:34:07.040Z,23.60
2019-05-01T18:36:39.618Z,23.60
2019-05-01T18:39:21.994Z,23.60
2019-05-01T18:41:53.052Z,23.60
2019-05-01T18:44:21.036Z,23.60
2019-05-01T18:47:20.532Z,23.60
2019-05-01T18:49:48.538Z,23.60
2019-05-01T18:52:16.964Z,23.60
2019-05-01T18:54:44.967Z,23.60
2019-05-01T18:57:13.735Z,23.60
2019-05-01T18:59:42.815Z,23.60
2019-05-01T19:02:10.920Z,23.60
2019-05-01T19:04:39.225Z,23.60
2019-05-01T19:07:07.422Z,23.60
2019-05-01T19:09:36.885Z,23.50
2019-05-01T19:12:07.454Z,23.50
2019-05-01T19:14:35.854Z,23.50
2019-05-01T19:17:04.116Z,23.50
2019-05-01T19:19:32.055Z,23.50
2019-05-01T19:22:00.152Z,23.50
2019-05-01T19:24:32.526Z,23.50
2019-05-01T19:26:58.794Z,23.40
2019-05-01T19:29:31.915Z,23.50
2019-05-01T19:31:57.033Z,23.50
2019-05-01T19:34:25.093Z,23.50
2019-05-01T19:36:53.374Z,23.50
2019-05-01T19:39:21.592Z,23.50
2019-05-01T19:41:51.094Z,23.40
2019-05-01T19:44:20.336Z,23.50
2019-05-01T19:46:48.333Z,23.50
2019-05-01T19:49:16.461Z,23.50
2019-05-01T19:51:45.339Z,23.40
2019-05-01T19:54:14.434Z,23.50
2019-05-01T19:56:42.503Z,23.40
2019-05-01T19:59:10.452Z,23.40
2019-05-01T20:01:44.572Z,23.40
2019-05-01T20:04:13.253Z,23.40
2019-05-01T20:06:40.268Z,23.40
2019-05-01T20:09:08.618Z,23.40
2019-05-01T20:11:37.964Z,23.40
2019-05-01T20:14:06.433Z,23.40
2019-05-01T20:16:34.638Z,23.40
2019-05-01T20:19:03.296Z,23.40
2019-05-01T20:21:31.592Z,23.40
2019-05-01T20:24:04.466Z,23.40
2019-05-01T20:26:32.131Z,23.40
2019-05-01T20:29:00.776Z,23.40
2019-05-01T20:31:32.662Z,23.40
2019-05-01T20:33:59.060Z,23.40
2019-05-01T20:36:27.371Z,23.40
2019-05-01T20:38:55.648Z,23.40
2019-05-01T20:41:23.641Z,23.40
2019-05-01T20:43:51.678Z,23.40
2019-05-01T20:46:21.196Z,23.40
2019-05-01T20:48:49.708Z,23.40
2019-05-01T20:51:20.159Z,23.40
2019-05-01T20:53:47.688Z,23.40
2019-05-01T20:56:25.501Z,23.40
2019-05-01T20:58:57.722Z,23.40
2019-05-01T21:01:24.259Z,23.40
2019-05-01T21:04:13.759Z,23.40
2019-05-01T21:06:45.380Z,23.40
2019-05-01T21:09:17.286Z,23.40
2019-05-01T21:11:48.912Z,23.30
2019-05-01T21:14:22.524Z,23.40
2019-05-01T21:16:47.134Z,23.40
2019-05-01T21:19:15.106Z,23.50
2019-05-01T21:21:43.546Z,23.50
2019-05-01T21:24:13.594Z,23.40
2019-05-01T21:26:43.387Z,23.50
2019-05-01T21:29:11.542Z,23.50
2019-05-01T21:31:41.437Z,23.50
2019-05-01T21:34:09.404Z,23.50
2019-05-01T21:36:37.462Z,23.50
2019-05-01T21:39:06.274Z,23.50
2019-05-01T21:41:34.647Z,23.50
2019-05-01T21:44:04.144Z,23.50
2019-05-01T21:46:34.162Z,23.50
2019-05-01T21:49:02.729Z,23.50
2019-05-01T21:51:32.855Z,23.50
2019-05-01T21:54:02.908Z,23.50
2019-05-01T21:56:32.252Z,23.50
2019-05-01T21:59:04.734Z,23.50
2019-05-01T22:01:34.872Z,23.50
2019-05-01T22:04:01.000Z,23.50
2019-05-01T22:06:30.984Z,23.50
2019-05-01T22:08:59.409Z,23.50
2019-05-01T22:11:27.790Z,23.50
2019-05-01T22:14:00.207Z,23.40
2019-05-01T22:16:27.688Z,23.50
2019-05-01T22:19:05.298Z,23.40
2019-05-01T22:22:08.184Z,23.40
2019-05-01T22:24:46.676Z,23.40
2019-05-01T22:27:19.759Z,23.40
2019-05-01T22:29:56.968Z,23.40
2019-05-01T22:32:32.408Z,23.40
2019-05-01T22:35:14.556Z,23.40
2019-05-01T22:37:42.941Z,23.40
2019-05-01T22:40:13.215Z,23.40
2019-05-01T22:42:41.175Z,23.40
2019-05-01T22:45:17.892Z,23.40
2019-05-01T22:47:50.553Z,23.40
2019-05-01T22:50:16.446Z,23.40
2019-05-01T22:52:44.567Z,23.40
2019-05-01T22:55:14.718Z,23.40
2019-05-01T22:57:42.788Z,23.40
2019-05-01T23:00:35.044Z,23.40
2019-05-01T23:03:05.589Z,23.40
2019-05-01T23:05:34.658Z,23.40
2019-05-01T23:08:02.716Z,23.40
2019-05-01T23:10:31.401Z,23.30
2019-05-01T23:12:59.430Z,23.40
2019-05-01T23:15:29.446Z,23.30
2019-05-01T23:17:57.416Z,23.30
2019-05-01T23:20:26.693Z,23.40
2019-05-01T23:22:54.738Z,23.40
2019-05-01T23:25:23.317Z,23.40
2019-05-01T23:27:51.304Z,23.40
2019-05-01T23:30:21.269Z,23.40
2019-05-01T23:32:49.387Z,23.40
2019-05-01T23:35:17.360Z,23.40
2019-05-01T23:37:45.611Z,23.40
2019-05-01T23:40:15.496Z,23.40
2019-05-01T23:42:52.277Z,23.40
2019-05-01T23:45:14.681Z,23.40
2019-05-01T23:47:43.923Z,23.40
2019-05-01T23:50:13.581Z,23.40
2019-05-01T23:52:41.588Z,23.40
2019-05-01T23:55:09.834Z,23.40
2019-05-01T23:57:37.821Z,23.40
